KOCW/OCW METAR and TAF weather

Enter ICAO airport designator
Station Type Date Time Source
KOCW METAR 2019/11/14 04:15 UTC NOAA

KOCW 140415Z AUTO 00000KT 10SM CLR M02/M04 A3047 RMK AO2 T10211041


Station Type Date Time Source
KOCW Decoded METAR 2019/11/14 04:15 UTC NOAA

Washington, Warren Field Airport, NC, United States (KOCW) 35-34-14N 077-02-59W
Nov 13, 2019 - 11:15 PM EST / 2019.11.14 0415 UTC
Wind: Calm:0
Visibility: 10 mile(s):0
Sky conditions: clear
Temperature: 28.2 F (-2.1 C)
Dew Point: 24.6 F (-4.1 C)
Relative Humidity: 86%
Pressure (altimeter): 30.47 in. Hg (1031 hPa)
ob: KOCW 140415Z AUTO 00000KT 10SM CLR M02/M04 A3047 RMK AO2 T10211041
cycle: 4

Station Type Date Time Source
KOCW TAF UTC NOAA

Error!

Example: see airport list